Landivisiau Air Base

Airport
ICAO code: 
LFRJ
Summary
ICAO Region: 
EUR
Territory: 
Location: 
, Bretagne
Serving: 
Landivisiau
Elevation: 
348 ft
Coordinates: 
Aerial View: 
48° 31' 48.929" N, 4° 9' 5.911" W
Metar
Observation
LFRJ 302200Z AUTO 23022KT 5000 -RA BR OVC004 11/10 Q1012
Station
Landivisiau
Date/Time
2021-11-30 22:00:00
Wind direction
230°
Wind speed
22 kts
Lowest cloud amount
overcast
Temperature
11°C
Dew point
10°C
Humidity
93%
QNH
1012 hPa
Weather condition
n/a

Runways

Designator Length Width Surface Rops
8/26 2700 45 CON No/No
Airport map: 
Aerial View: 

SKYbrary Partners:

Safety knowledge contributed by: